sensor_id;sensor_type;location;lat;lon;timestamp;P1;durP1;ratioP1;P2;durP2;ratioP2
69047;SDS011;56119;50.118;8.642;2022-12-04T00:02:18;29.50;;;16.17;;
69047;SDS011;56119;50.118;8.642;2022-12-04T00:04:44;30.27;;;16.07;;
69047;SDS011;56119;50.118;8.642;2022-12-04T00:07:10;30.60;;;15.30;;
69047;SDS011;56119;50.118;8.642;2022-12-04T00:09:36;30.77;;;16.50;;
69047;SDS011;56119;50.118;8.642;2022-12-04T00:12:02;29.57;;;15.40;;
69047;SDS011;56119;50.118;8.642;2022-12-04T00:14:28;28.40;;;15.97;;
69047;SDS011;56119;50.118;8.642;2022-12-04T00:16:54;33.73;;;17.73;;
69047;SDS011;56119;50.118;8.642;2022-12-04T00:19:20;31.50;;;16.47;;
69047;SDS011;56119;50.118;8.642;2022-12-04T00:21:47;32.67;;;17.20;;
69047;SDS011;56119;50.118;8.642;2022-12-04T00:24:13;33.03;;;17.33;;
69047;SDS011;56119;50.118;8.642;2022-12-04T00:26:39;30.80;;;17.40;;
69047;SDS011;56119;50.118;8.642;2022-12-04T00:29:05;31.90;;;17.17;;
69047;SDS011;56119;50.118;8.642;2022-12-04T00:31:31;32.47;;;16.10;;
69047;SDS011;56119;50.118;8.642;2022-12-04T00:33:58;32.57;;;17.23;;
69047;SDS011;56119;50.118;8.642;2022-12-04T00:36:25;31.83;;;15.60;;
69047;SDS011;56119;50.118;8.642;2022-12-04T00:38:51;31.53;;;16.70;;
69047;SDS011;56119;50.118;8.642;2022-12-04T00:41:19;44.97;;;24.73;;
69047;SDS011;56119;50.118;8.642;2022-12-04T00:43:45;38.70;;;19.87;;
69047;SDS011;56119;50.118;8.642;2022-12-04T00:46:11;63.95;;;34.50;;
69047;SDS011;56119;50.118;8.642;2022-12-04T00:48:37;35.80;;;20.17;;
69047;SDS011;56119;50.118;8.642;2022-12-04T00:51:04;41.73;;;21.73;;
69047;SDS011;56119;50.118;8.642;2022-12-04T00:53:30;34.73;;;16.73;;
69047;SDS011;56119;50.118;8.642;2022-12-04T00:55:56;29.50;;;15.70;;
69047;SDS011;56119;50.118;8.642;2022-12-04T00:58:23;32.20;;;16.00;;
69047;SDS011;56119;50.118;8.642;2022-12-04T01:00:49;33.53;;;17.23;;
69047;SDS011;56119;50.118;8.642;2022-12-04T01:03:15;32.70;;;17.27;;
69047;SDS011;56119;50.118;8.642;2022-12-04T01:05:42;31.58;;;16.73;;
69047;SDS011;56119;50.118;8.642;2022-12-04T01:08:09;31.07;;;15.83;;
69047;SDS011;56119;50.118;8.642;2022-12-04T01:10:39;34.35;;;17.75;;
69047;SDS011;56119;50.118;8.642;2022-12-04T01:13:05;35.43;;;17.23;;
69047;SDS011;56119;50.118;8.642;2022-12-04T01:15:31;29.03;;;15.50;;
69047;SDS011;56119;50.118;8.642;2022-12-04T01:17:57;31.57;;;17.20;;
69047;SDS011;56119;50.118;8.642;2022-12-04T01:20:23;30.53;;;16.27;;
69047;SDS011;56119;50.118;8.642;2022-12-04T01:22:49;31.97;;;16.87;;
69047;SDS011;56119;50.118;8.642;2022-12-04T01:25:15;32.17;;;17.63;;
69047;SDS011;56119;50.118;8.642;2022-12-04T01:27:41;29.57;;;17.10;;
69047;SDS011;56119;50.118;8.642;2022-12-04T01:30:07;31.00;;;16.33;;
69047;SDS011;56119;50.118;8.642;2022-12-04T01:32:33;31.17;;;16.70;;
69047;SDS011;56119;50.118;8.642;2022-12-04T01:34:59;30.77;;;16.10;;
69047;SDS011;56119;50.118;8.642;2022-12-04T01:37:25;29.07;;;16.27;;
69047;SDS011;56119;50.118;8.642;2022-12-04T01:39:51;28.80;;;15.43;;
69047;SDS011;56119;50.118;8.642;2022-12-04T01:42:17;28.95;;;15.27;;
69047;SDS011;56119;50.118;8.642;2022-12-04T01:44:44;28.73;;;15.97;;
69047;SDS011;56119;50.118;8.642;2022-12-04T01:47:29;31.67;;;17.43;;
69047;SDS011;56119;50.118;8.642;2022-12-04T01:49:55;31.53;;;17.63;;
69047;SDS011;56119;50.118;8.642;2022-12-04T01:52:21;29.90;;;15.90;;
69047;SDS011;56119;50.118;8.642;2022-12-04T01:54:53;27.27;;;16.23;;
69047;SDS011;56119;50.118;8.642;2022-12-04T01:57:21;28.67;;;16.73;;
69047;SDS011;56119;50.118;8.642;2022-12-04T01:59:49;28.00;;;15.30;;
69047;SDS011;56119;50.118;8.642;2022-12-04T02:02:17;31.93;;;16.43;;
69047;SDS011;56119;50.118;8.642;2022-12-04T02:04:43;31.03;;;16.93;;
69047;SDS011;56119;50.118;8.642;2022-12-04T02:07:10;27.20;;;14.83;;
69047;SDS011;56119;50.118;8.642;2022-12-04T02:09:36;28.47;;;16.23;;
69047;SDS011;56119;50.118;8.642;2022-12-04T02:12:07;27.97;;;16.10;;
69047;SDS011;56119;50.118;8.642;2022-12-04T02:14:39;30.60;;;16.73;;
69047;SDS011;56119;50.118;8.642;2022-12-04T02:17:16;28.00;;;15.83;;
69047;SDS011;56119;50.118;8.642;2022-12-04T02:19:48;28.53;;;16.03;;
69047;SDS011;56119;50.118;8.642;2022-12-04T02:22:21;31.57;;;16.33;;
69047;SDS011;56119;50.118;8.642;2022-12-04T02:24:55;29.43;;;16.53;;
69047;SDS011;56119;50.118;8.642;2022-12-04T02:30:04;27.53;;;15.60;;
69047;SDS011;56119;50.118;8.642;2022-12-04T02:38:09;30.67;;;17.20;;
69047;SDS011;56119;50.118;8.642;2022-12-04T02:40:38;28.83;;;15.97;;
69047;SDS011;56119;50.118;8.642;2022-12-04T02:43:07;28.07;;;15.13;;
69047;SDS011;56119;50.118;8.642;2022-12-04T02:45:37;32.60;;;16.87;;
69047;SDS011;56119;50.118;8.642;2022-12-04T02:48:05;29.17;;;16.03;;
69047;SDS011;56119;50.118;8.642;2022-12-04T02:50:33;28.70;;;15.30;;
69047;SDS011;56119;50.118;8.642;2022-12-04T02:53:05;28.47;;;14.93;;
69047;SDS011;56119;50.118;8.642;2022-12-04T02:55:41;27.73;;;16.25;;
69047;SDS011;56119;50.118;8.642;2022-12-04T02:58:12;30.08;;;16.13;;
69047;SDS011;56119;50.118;8.642;2022-12-04T03:00:40;29.27;;;15.43;;
69047;SDS011;56119;50.118;8.642;2022-12-04T03:03:08;31.10;;;16.17;;
69047;SDS011;56119;50.118;8.642;2022-12-04T03:08:03;31.17;;;16.40;;
69047;SDS011;56119;50.118;8.642;2022-12-04T03:10:31;27.90;;;15.77;;
69047;SDS011;56119;50.118;8.642;2022-12-04T03:13:01;30.80;;;16.50;;
69047;SDS011;56119;50.118;8.642;2022-12-04T03:15:36;27.63;;;16.00;;
69047;SDS011;56119;50.118;8.642;2022-12-04T03:18:06;29.30;;;16.83;;
69047;SDS011;56119;50.118;8.642;2022-12-04T03:20:34;28.97;;;15.57;;
69047;SDS011;56119;50.118;8.642;2022-12-04T03:23:02;29.80;;;15.83;;
69047;SDS011;56119;50.118;8.642;2022-12-04T03:25:34;29.07;;;15.50;;
69047;SDS011;56119;50.118;8.642;2022-12-04T03:28:06;30.10;;;15.30;;
69047;SDS011;56119;50.118;8.642;2022-12-04T03:30:43;32.57;;;16.70;;
69047;SDS011;56119;50.118;8.642;2022-12-04T03:33:15;28.27;;;15.23;;
69047;SDS011;56119;50.118;8.642;2022-12-04T03:35:46;27.23;;;15.27;;
69047;SDS011;56119;50.118;8.642;2022-12-04T03:38:16;26.30;;;14.80;;
69047;SDS011;56119;50.118;8.642;2022-12-04T03:41:02;29.27;;;15.57;;
69047;SDS011;56119;50.118;8.642;2022-12-04T03:46:08;28.03;;;15.53;;
69047;SDS011;56119;50.118;8.642;2022-12-04T03:51:06;30.93;;;16.57;;
69047;SDS011;56119;50.118;8.642;2022-12-04T03:53:44;27.93;;;14.77;;
69047;SDS011;56119;50.118;8.642;2022-12-04T03:56:13;29.00;;;15.47;;
69047;SDS011;56119;50.118;8.642;2022-12-04T03:58:41;30.53;;;16.20;;
69047;SDS011;56119;50.118;8.642;2022-12-04T04:01:09;27.53;;;14.77;;
69047;SDS011;56119;50.118;8.642;2022-12-04T04:03:41;30.33;;;16.13;;
69047;SDS011;56119;50.118;8.642;2022-12-04T04:06:11;26.90;;;14.80;;
69047;SDS011;56119;50.118;8.642;2022-12-04T04:08:38;27.73;;;15.73;;
69047;SDS011;56119;50.118;8.642;2022-12-04T04:13:45;27.57;;;14.87;;
69047;SDS011;56119;50.118;8.642;2022-12-04T04:16:31;31.27;;;16.57;;
69047;SDS011;56119;50.118;8.642;2022-12-04T04:19:17;30.20;;;15.80;;
69047;SDS011;56119;50.118;8.642;2022-12-04T04:22:03;31.23;;;16.33;;
69047;SDS011;56119;50.118;8.642;2022-12-04T04:24:50;28.80;;;16.07;;
69047;SDS011;56119;50.118;8.642;2022-12-04T04:27:18;27.30;;;15.27;;
69047;SDS011;56119;50.118;8.642;2022-12-04T04:29:44;29.70;;;16.23;;
69047;SDS011;56119;50.118;8.642;2022-12-04T04:32:17;29.43;;;16.93;;
69047;SDS011;56119;50.118;8.642;2022-12-04T04:34:50;30.23;;;15.80;;
69047;SDS011;56119;50.118;8.642;2022-12-04T04:37:22;32.10;;;17.00;;
69047;SDS011;56119;50.118;8.642;2022-12-04T04:42:37;25.70;;;15.23;;
69047;SDS011;56119;50.118;8.642;2022-12-04T04:45:09;31.47;;;16.23;;
69047;SDS011;56119;50.118;8.642;2022-12-04T04:50:06;32.53;;;16.87;;
69047;SDS011;56119;50.118;8.642;2022-12-04T04:52:33;31.73;;;17.03;;
69047;SDS011;56119;50.118;8.642;2022-12-04T04:55:00;30.43;;;16.37;;
69047;SDS011;56119;50.118;8.642;2022-12-04T04:57:28;29.57;;;15.53;;
69047;SDS011;56119;50.118;8.642;2022-12-04T04:59:54;27.33;;;15.30;;
69047;SDS011;56119;50.118;8.642;2022-12-04T05:02:20;29.60;;;16.73;;
69047;SDS011;56119;50.118;8.642;2022-12-04T05:04:46;30.30;;;16.20;;
69047;SDS011;56119;50.118;8.642;2022-12-04T05:07:12;27.97;;;16.27;;
69047;SDS011;56119;50.118;8.642;2022-12-04T05:09:38;30.13;;;15.50;;
69047;SDS011;56119;50.118;8.642;2022-12-04T05:12:04;30.20;;;16.17;;
69047;SDS011;56119;50.118;8.642;2022-12-04T05:14:30;27.47;;;15.27;;
69047;SDS011;56119;50.118;8.642;2022-12-04T05:16:56;34.70;;;16.50;;
69047;SDS011;56119;50.118;8.642;2022-12-04T05:19:22;30.00;;;16.33;;
69047;SDS011;56119;50.118;8.642;2022-12-04T05:22:07;31.30;;;16.40;;
69047;SDS011;56119;50.118;8.642;2022-12-04T05:24:33;30.10;;;15.03;;
69047;SDS011;56119;50.118;8.642;2022-12-04T05:26:59;27.47;;;14.87;;
69047;SDS011;56119;50.118;8.642;2022-12-04T05:29:25;25.80;;;14.57;;
69047;SDS011;56119;50.118;8.642;2022-12-04T05:31:51;27.63;;;14.87;;
69047;SDS011;56119;50.118;8.642;2022-12-04T05:34:17;27.80;;;15.10;;
69047;SDS011;56119;50.118;8.642;2022-12-04T05:36:43;26.80;;;15.03;;
69047;SDS011;56119;50.118;8.642;2022-12-04T05:39:09;27.30;;;14.33;;
69047;SDS011;56119;50.118;8.642;2022-12-04T05:41:35;28.53;;;14.93;;
69047;SDS011;56119;50.118;8.642;2022-12-04T05:44:01;30.27;;;15.80;;
69047;SDS011;56119;50.118;8.642;2022-12-04T05:46:27;28.37;;;15.07;;
69047;SDS011;56119;50.118;8.642;2022-12-04T05:48:53;29.33;;;16.23;;
69047;SDS011;56119;50.118;8.642;2022-12-04T05:51:18;29.33;;;15.00;;
69047;SDS011;56119;50.118;8.642;2022-12-04T05:53:44;26.93;;;13.80;;
69047;SDS011;56119;50.118;8.642;2022-12-04T05:56:10;27.43;;;15.53;;
69047;SDS011;56119;50.118;8.642;2022-12-04T05:58:37;27.00;;;15.07;;
69047;SDS011;56119;50.118;8.642;2022-12-04T06:01:07;30.93;;;16.40;;
69047;SDS011;56119;50.118;8.642;2022-12-04T06:03:33;29.80;;;16.40;;
69047;SDS011;56119;50.118;8.642;2022-12-04T06:05:59;27.17;;;15.00;;
69047;SDS011;56119;50.118;8.642;2022-12-04T06:08:25;31.23;;;15.97;;
69047;SDS011;56119;50.118;8.642;2022-12-04T06:10:51;27.87;;;15.10;;
69047;SDS011;56119;50.118;8.642;2022-12-04T06:13:17;30.00;;;14.03;;
69047;SDS011;56119;50.118;8.642;2022-12-04T06:15:43;27.00;;;15.50;;
69047;SDS011;56119;50.118;8.642;2022-12-04T06:18:08;28.37;;;15.40;;
69047;SDS011;56119;50.118;8.642;2022-12-04T06:20:34;27.63;;;14.83;;
69047;SDS011;56119;50.118;8.642;2022-12-04T06:23:01;29.17;;;16.03;;
69047;SDS011;56119;50.118;8.642;2022-12-04T06:25:27;26.90;;;14.63;;
69047;SDS011;56119;50.118;8.642;2022-12-04T06:27:53;29.17;;;15.40;;
69047;SDS011;56119;50.118;8.642;2022-12-04T06:30:19;27.33;;;15.70;;
69047;SDS011;56119;50.118;8.642;2022-12-04T06:32:45;27.20;;;14.63;;
69047;SDS011;56119;50.118;8.642;2022-12-04T06:35:11;27.40;;;14.73;;
69047;SDS011;56119;50.118;8.642;2022-12-04T06:37:37;25.57;;;14.40;;
69047;SDS011;56119;50.118;8.642;2022-12-04T06:40:03;27.37;;;15.27;;
69047;SDS011;56119;50.118;8.642;2022-12-04T06:42:29;28.10;;;15.23;;
69047;SDS011;56119;50.118;8.642;2022-12-04T06:44:55;25.63;;;15.30;;
69047;SDS011;56119;50.118;8.642;2022-12-04T06:47:21;25.47;;;14.53;;
69047;SDS011;56119;50.118;8.642;2022-12-04T06:49:50;24.97;;;14.37;;
69047;SDS011;56119;50.118;8.642;2022-12-04T06:52:16;23.93;;;14.00;;
69047;SDS011;56119;50.118;8.642;2022-12-04T06:54:42;24.40;;;14.13;;
69047;SDS011;56119;50.118;8.642;2022-12-04T06:57:08;28.47;;;14.63;;
69047;SDS011;56119;50.118;8.642;2022-12-04T06:59:34;28.93;;;14.83;;
69047;SDS011;56119;50.118;8.642;2022-12-04T07:02:00;28.57;;;14.57;;
69047;SDS011;56119;50.118;8.642;2022-12-04T07:04:26;27.50;;;13.87;;
69047;SDS011;56119;50.118;8.642;2022-12-04T07:06:52;24.73;;;13.73;;
69047;SDS011;56119;50.118;8.642;2022-12-04T07:09:18;25.57;;;13.70;;
69047;SDS011;56119;50.118;8.642;2022-12-04T07:11:44;26.17;;;14.37;;
69047;SDS011;56119;50.118;8.642;2022-12-04T07:14:11;26.30;;;15.13;;
69047;SDS011;56119;50.118;8.642;2022-12-04T07:16:38;23.90;;;14.43;;
69047;SDS011;56119;50.118;8.642;2022-12-04T07:19:04;23.50;;;13.80;;
69047;SDS011;56119;50.118;8.642;2022-12-04T07:21:30;25.47;;;14.53;;
69047;SDS011;56119;50.118;8.642;2022-12-04T07:23:58;27.30;;;14.80;;
69047;SDS011;56119;50.118;8.642;2022-12-04T07:26:25;27.40;;;15.17;;
69047;SDS011;56119;50.118;8.642;2022-12-04T07:28:52;25.33;;;14.07;;
69047;SDS011;56119;50.118;8.642;2022-12-04T07:31:19;26.67;;;14.10;;
69047;SDS011;56119;50.118;8.642;2022-12-04T07:33:45;24.37;;;13.63;;
69047;SDS011;56119;50.118;8.642;2022-12-04T07:36:12;27.83;;;15.30;;
69047;SDS011;56119;50.118;8.642;2022-12-04T07:38:38;24.40;;;13.97;;
69047;SDS011;56119;50.118;8.642;2022-12-04T07:41:05;24.50;;;13.93;;
69047;SDS011;56119;50.118;8.642;2022-12-04T07:43:31;25.20;;;14.33;;
69047;SDS011;56119;50.118;8.642;2022-12-04T07:45:58;27.47;;;15.17;;
69047;SDS011;56119;50.118;8.642;2022-12-04T07:48:24;22.53;;;13.53;;
69047;SDS011;56119;50.118;8.642;2022-12-04T07:50:50;24.40;;;13.90;;
69047;SDS011;56119;50.118;8.642;2022-12-04T07:53:16;27.77;;;15.53;;
69047;SDS011;56119;50.118;8.642;2022-12-04T07:55:42;27.30;;;14.53;;
69047;SDS011;56119;50.118;8.642;2022-12-04T07:58:08;27.60;;;14.70;;
69047;SDS011;56119;50.118;8.642;2022-12-04T08:00:33;27.17;;;14.77;;
69047;SDS011;56119;50.118;8.642;2022-12-04T08:02:59;25.07;;;14.30;;
69047;SDS011;56119;50.118;8.642;2022-12-04T08:05:25;26.83;;;14.80;;
69047;SDS011;56119;50.118;8.642;2022-12-04T08:07:51;25.93;;;14.50;;
69047;SDS011;56119;50.118;8.642;2022-12-04T08:10:17;26.73;;;14.83;;
69047;SDS011;56119;50.118;8.642;2022-12-04T08:12:43;27.70;;;15.50;;
69047;SDS011;56119;50.118;8.642;2022-12-04T08:15:09;25.70;;;14.63;;
69047;SDS011;56119;50.118;8.642;2022-12-04T08:17:35;29.47;;;14.50;;
69047;SDS011;56119;50.118;8.642;2022-12-04T08:20:01;24.53;;;14.43;;
69047;SDS011;56119;50.118;8.642;2022-12-04T08:22:27;28.23;;;15.20;;
69047;SDS011;56119;50.118;8.642;2022-12-04T08:24:53;26.63;;;14.23;;
69047;SDS011;56119;50.118;8.642;2022-12-04T08:27:19;28.47;;;14.43;;
69047;SDS011;56119;50.118;8.642;2022-12-04T08:29:45;25.47;;;14.17;;
69047;SDS011;56119;50.118;8.642;2022-12-04T08:32:11;27.53;;;14.90;;
69047;SDS011;56119;50.118;8.642;2022-12-04T08:34:37;27.47;;;15.07;;
69047;SDS011;56119;50.118;8.642;2022-12-04T08:37:03;30.47;;;16.60;;
69047;SDS011;56119;50.118;8.642;2022-12-04T08:39:29;30.33;;;16.47;;
69047;SDS011;56119;50.118;8.642;2022-12-04T08:41:55;31.57;;;17.23;;
69047;SDS011;56119;50.118;8.642;2022-12-04T08:44:21;28.87;;;15.67;;
69047;SDS011;56119;50.118;8.642;2022-12-04T08:46:47;29.70;;;15.67;;
69047;SDS011;56119;50.118;8.642;2022-12-04T08:49:13;27.60;;;17.10;;
69047;SDS011;56119;50.118;8.642;2022-12-04T08:51:39;29.00;;;15.20;;
69047;SDS011;56119;50.118;8.642;2022-12-04T08:54:06;33.00;;;17.43;;
69047;SDS011;56119;50.118;8.642;2022-12-04T08:56:33;32.73;;;17.00;;
69047;SDS011;56119;50.118;8.642;2022-12-04T08:58:59;33.13;;;16.70;;
69047;SDS011;56119;50.118;8.642;2022-12-04T09:01:26;33.20;;;16.50;;
69047;SDS011;56119;50.118;8.642;2022-12-04T09:03:53;33.47;;;17.00;;
69047;SDS011;56119;50.118;8.642;2022-12-04T09:06:19;33.90;;;17.90;;
69047;SDS011;56119;50.118;8.642;2022-12-04T09:08:45;33.30;;;17.60;;
69047;SDS011;56119;50.118;8.642;2022-12-04T09:11:12;36.40;;;16.87;;
69047;SDS011;56119;50.118;8.642;2022-12-04T09:13:38;34.30;;;17.30;;
69047;SDS011;56119;50.118;8.642;2022-12-04T09:16:06;35.43;;;18.03;;
69047;SDS011;56119;50.118;8.642;2022-12-04T09:18:33;34.57;;;18.47;;
69047;SDS011;56119;50.118;8.642;2022-12-04T09:21:00;38.67;;;19.47;;
69047;SDS011;56119;50.118;8.642;2022-12-04T09:23:26;36.67;;;19.13;;
69047;SDS011;56119;50.118;8.642;2022-12-04T09:25:52;33.07;;;17.13;;
69047;SDS011;56119;50.118;8.642;2022-12-04T09:28:18;34.80;;;17.87;;
69047;SDS011;56119;50.118;8.642;2022-12-04T09:30:44;36.47;;;17.87;;
69047;SDS011;56119;50.118;8.642;2022-12-04T09:33:10;36.23;;;18.50;;
69047;SDS011;56119;50.118;8.642;2022-12-04T09:35:37;36.30;;;17.73;;
69047;SDS011;56119;50.118;8.642;2022-12-04T09:38:03;38.37;;;19.03;;
69047;SDS011;56119;50.118;8.642;2022-12-04T09:40:36;36.53;;;17.83;;
69047;SDS011;56119;50.118;8.642;2022-12-04T09:43:07;41.13;;;19.43;;
69047;SDS011;56119;50.118;8.642;2022-12-04T09:45:47;35.67;;;17.05;;
69047;SDS011;56119;50.118;8.642;2022-12-04T09:48:15;38.15;;;19.98;;
69047;SDS011;56119;50.118;8.642;2022-12-04T09:50:43;34.15;;;17.40;;
69047;SDS011;56119;50.118;8.642;2022-12-04T09:53:10;36.93;;;17.30;;
69047;SDS011;56119;50.118;8.642;2022-12-04T09:55:43;37.58;;;18.42;;
69047;SDS011;56119;50.118;8.642;2022-12-04T09:58:20;36.05;;;17.85;;
69047;SDS011;56119;50.118;8.642;2022-12-04T10:00:48;36.83;;;17.77;;
69047;SDS011;56119;50.118;8.642;2022-12-04T10:03:18;37.90;;;18.70;;
69047;SDS011;56119;50.118;8.642;2022-12-04T10:08:31;34.67;;;17.15;;
69047;SDS011;56119;50.118;8.642;2022-12-04T10:13:49;36.37;;;17.93;;
69047;SDS011;56119;50.118;8.642;2022-12-04T10:16:22;33.85;;;16.80;;
69047;SDS011;56119;50.118;8.642;2022-12-04T10:18:56;35.17;;;17.52;;
69047;SDS011;56119;50.118;8.642;2022-12-04T10:21:34;37.55;;;17.88;;
69047;SDS011;56119;50.118;8.642;2022-12-04T10:26:32;38.10;;;18.95;;
69047;SDS011;56119;50.118;8.642;2022-12-04T10:29:01;41.95;;;19.42;;
69047;SDS011;56119;50.118;8.642;2022-12-04T10:31:28;39.40;;;17.70;;
69047;SDS011;56119;50.118;8.642;2022-12-04T10:36:21;38.45;;;18.33;;
69047;SDS011;56119;50.118;8.642;2022-12-04T10:41:20;36.17;;;17.75;;
69047;SDS011;56119;50.118;8.642;2022-12-04T10:43:49;37.45;;;19.92;;
69047;SDS011;56119;50.118;8.642;2022-12-04T10:46:32;39.60;;;18.70;;
69047;SDS011;56119;50.118;8.642;2022-12-04T10:48:59;38.13;;;18.30;;
69047;SDS011;56119;50.118;8.642;2022-12-04T10:51:27;34.30;;;18.25;;
69047;SDS011;56119;50.118;8.642;2022-12-04T10:53:55;37.75;;;18.35;;
69047;SDS011;56119;50.118;8.642;2022-12-04T10:56:23;33.80;;;17.55;;
69047;SDS011;56119;50.118;8.642;2022-12-04T10:59:00;37.33;;;17.48;;
69047;SDS011;56119;50.118;8.642;2022-12-04T11:01:29;33.95;;;16.88;;
69047;SDS011;56119;50.118;8.642;2022-12-04T11:03:58;33.67;;;17.27;;
69047;SDS011;56119;50.118;8.642;2022-12-04T11:06:25;35.80;;;17.42;;
69047;SDS011;56119;50.118;8.642;2022-12-04T11:08:51;33.67;;;17.23;;
69047;SDS011;56119;50.118;8.642;2022-12-04T11:11:33;32.30;;;16.98;;
69047;SDS011;56119;50.118;8.642;2022-12-04T11:14:00;35.00;;;17.65;;
69047;SDS011;56119;50.118;8.642;2022-12-04T11:18:58;34.35;;;17.10;;
69047;SDS011;56119;50.118;8.642;2022-12-04T11:21:30;38.78;;;18.77;;
69047;SDS011;56119;50.118;8.642;2022-12-04T11:23:57;32.87;;;17.47;;
69047;SDS011;56119;50.118;8.642;2022-12-04T11:26:30;38.78;;;18.15;;
69047;SDS011;56119;50.118;8.642;2022-12-04T11:28:57;34.10;;;16.77;;
69047;SDS011;56119;50.118;8.642;2022-12-04T11:31:25;33.63;;;16.23;;
69047;SDS011;56119;50.118;8.642;2022-12-04T11:33:56;30.73;;;15.70;;
69047;SDS011;56119;50.118;8.642;2022-12-04T11:36:30;32.08;;;16.92;;
69047;SDS011;56119;50.118;8.642;2022-12-04T11:39:13;35.33;;;16.95;;
69047;SDS011;56119;50.118;8.642;2022-12-04T11:41:42;30.52;;;15.95;;
69047;SDS011;56119;50.118;8.642;2022-12-04T11:44:20;30.95;;;16.92;;
69047;SDS011;56119;50.118;8.642;2022-12-04T11:46:51;29.73;;;15.75;;
69047;SDS011;56119;50.118;8.642;2022-12-04T11:49:19;31.10;;;17.05;;
69047;SDS011;56119;50.118;8.642;2022-12-04T11:51:59;29.42;;;16.23;;
69047;SDS011;56119;50.118;8.642;2022-12-04T11:54:44;30.37;;;15.60;;
69047;SDS011;56119;50.118;8.642;2022-12-04T11:57:16;32.97;;;16.67;;
69047;SDS011;56119;50.118;8.642;2022-12-04T11:59:57;31.20;;;15.10;;
69047;SDS011;56119;50.118;8.642;2022-12-04T12:02:34;32.08;;;16.33;;
69047;SDS011;56119;50.118;8.642;2022-12-04T12:10:18;31.27;;;15.40;;
69047;SDS011;56119;50.118;8.642;2022-12-04T12:15:18;27.67;;;14.82;;
69047;SDS011;56119;50.118;8.642;2022-12-04T12:26:08;29.17;;;15.07;;
69047;SDS011;56119;50.118;8.642;2022-12-04T12:32:03;28.58;;;15.02;;
69047;SDS011;56119;50.118;8.642;2022-12-04T12:33:59;28.92;;;15.80;;
69047;SDS011;56119;50.118;8.642;2022-12-04T12:36:29;33.38;;;16.65;;
69047;SDS011;56119;50.118;8.642;2022-12-04T12:39:00;31.73;;;15.90;;
69047;SDS011;56119;50.118;8.642;2022-12-04T12:41:36;29.45;;;16.25;;
69047;SDS011;56119;50.118;8.642;2022-12-04T12:44:04;28.73;;;16.15;;
69047;SDS011;56119;50.118;8.642;2022-12-04T12:46:43;29.58;;;14.68;;
69047;SDS011;56119;50.118;8.642;2022-12-04T12:51:46;27.90;;;14.68;;
69047;SDS011;56119;50.118;8.642;2022-12-04T12:59:51;26.08;;;14.27;;
69047;SDS011;56119;50.118;8.642;2022-12-04T13:02:26;28.50;;;15.40;;
69047;SDS011;56119;50.118;8.642;2022-12-04T13:04:54;29.10;;;15.38;;
69047;SDS011;56119;50.118;8.642;2022-12-04T13:07:26;25.85;;;14.77;;
69047;SDS011;56119;50.118;8.642;2022-12-04T13:10:00;28.77;;;16.05;;
69047;SDS011;56119;50.118;8.642;2022-12-04T13:12:28;29.33;;;16.48;;
69047;SDS011;56119;50.118;8.642;2022-12-04T13:14:56;27.95;;;15.13;;
69047;SDS011;56119;50.118;8.642;2022-12-04T13:17:40;28.27;;;15.52;;
69047;SDS011;56119;50.118;8.642;2022-12-04T13:20:07;28.92;;;15.35;;
69047;SDS011;56119;50.118;8.642;2022-12-04T13:27:51;31.33;;;15.93;;
69047;SDS011;56119;50.118;8.642;2022-12-04T13:30:21;32.53;;;15.80;;
69047;SDS011;56119;50.118;8.642;2022-12-04T13:40:59;32.60;;;16.80;;
69047;SDS011;56119;50.118;8.642;2022-12-04T13:43:33;29.42;;;15.52;;
69047;SDS011;56119;50.118;8.642;2022-12-04T13:46:01;30.98;;;16.95;;
69047;SDS011;56119;50.118;8.642;2022-12-04T13:48:38;31.42;;;16.60;;
69047;SDS011;56119;50.118;8.642;2022-12-04T13:51:33;28.35;;;15.93;;
69047;SDS011;56119;50.118;8.642;2022-12-04T13:56:50;31.67;;;17.92;;
69047;SDS011;56119;50.118;8.642;2022-12-04T14:01:46;29.05;;;15.48;;
69047;SDS011;56119;50.118;8.642;2022-12-04T14:05:13;30.92;;;17.17;;
69047;SDS011;56119;50.118;8.642;2022-12-04T14:07:18;28.35;;;16.80;;
69047;SDS011;56119;50.118;8.642;2022-12-04T14:09:48;30.98;;;17.65;;
69047;SDS011;56119;50.118;8.642;2022-12-04T14:12:15;31.17;;;15.70;;
69047;SDS011;56119;50.118;8.642;2022-12-04T14:14:50;29.50;;;16.23;;
69047;SDS011;56119;50.118;8.642;2022-12-04T14:17:18;32.22;;;16.73;;
69047;SDS011;56119;50.118;8.642;2022-12-04T14:19:50;31.55;;;16.52;;
69047;SDS011;56119;50.118;8.642;2022-12-04T14:22:27;30.02;;;16.75;;
69047;SDS011;56119;50.118;8.642;2022-12-04T14:25:03;32.10;;;16.27;;
69047;SDS011;56119;50.118;8.642;2022-12-04T14:27:31;33.55;;;17.55;;
69047;SDS011;56119;50.118;8.642;2022-12-04T14:30:00;30.90;;;16.77;;
69047;SDS011;56119;50.118;8.642;2022-12-04T14:32:27;32.58;;;17.15;;
69047;SDS011;56119;50.118;8.642;2022-12-04T14:34:55;30.70;;;16.58;;
69047;SDS011;56119;50.118;8.642;2022-12-04T14:37:29;31.23;;;17.25;;
69047;SDS011;56119;50.118;8.642;2022-12-04T14:39:57;30.67;;;15.85;;
69047;SDS011;56119;50.118;8.642;2022-12-04T14:42:25;31.85;;;17.58;;
69047;SDS011;56119;50.118;8.642;2022-12-04T14:44:55;30.65;;;17.20;;
69047;SDS011;56119;50.118;8.642;2022-12-04T14:48:17;31.63;;;17.10;;
69047;SDS011;56119;50.118;8.642;2022-12-04T14:52:54;31.80;;;17.55;;
69047;SDS011;56119;50.118;8.642;2022-12-04T14:55:31;32.08;;;16.67;;
69047;SDS011;56119;50.118;8.642;2022-12-04T14:58:02;31.27;;;17.75;;
69047;SDS011;56119;50.118;8.642;2022-12-04T15:00:52;34.33;;;17.93;;
69047;SDS011;56119;50.118;8.642;2022-12-04T15:03:19;30.88;;;17.10;;
69047;SDS011;56119;50.118;8.642;2022-12-04T15:05:45;27.77;;;16.00;;
69047;SDS011;56119;50.118;8.642;2022-12-04T15:08:12;35.38;;;18.55;;
69047;SDS011;56119;50.118;8.642;2022-12-04T15:10:38;31.43;;;16.90;;
69047;SDS011;56119;50.118;8.642;2022-12-04T15:13:28;30.13;;;17.33;;
69047;SDS011;56119;50.118;8.642;2022-12-04T15:15:55;33.15;;;17.88;;
69047;SDS011;56119;50.118;8.642;2022-12-04T15:18:21;33.88;;;19.15;;
69047;SDS011;56119;50.118;8.642;2022-12-04T15:23:34;32.90;;;18.38;;
69047;SDS011;56119;50.118;8.642;2022-12-04T15:26:00;31.60;;;18.05;;
69047;SDS011;56119;50.118;8.642;2022-12-04T15:28:29;33.80;;;18.13;;
69047;SDS011;56119;50.118;8.642;2022-12-04T15:30:56;32.42;;;17.85;;
69047;SDS011;56119;50.118;8.642;2022-12-04T15:33:27;31.70;;;17.88;;
69047;SDS011;56119;50.118;8.642;2022-12-04T15:36:01;31.88;;;17.83;;
69047;SDS011;56119;50.118;8.642;2022-12-04T15:38:29;33.38;;;18.05;;
69047;SDS011;56119;50.118;8.642;2022-12-04T15:40:56;34.22;;;17.67;;
69047;SDS011;56119;50.118;8.642;2022-12-04T15:43:29;30.42;;;18.13;;
69047;SDS011;56119;50.118;8.642;2022-12-04T15:45:55;32.00;;;17.52;;
69047;SDS011;56119;50.118;8.642;2022-12-04T15:48:26;33.35;;;17.77;;
69047;SDS011;56119;50.118;8.642;2022-12-04T15:50:59;33.28;;;20.17;;
69047;SDS011;56119;50.118;8.642;2022-12-04T15:53:35;31.55;;;16.95;;
69047;SDS011;56119;50.118;8.642;2022-12-04T15:56:08;31.05;;;17.75;;
69047;SDS011;56119;50.118;8.642;2022-12-04T15:58:36;32.35;;;18.23;;
69047;SDS011;56119;50.118;8.642;2022-12-04T16:01:04;34.38;;;18.45;;
69047;SDS011;56119;50.118;8.642;2022-12-04T16:03:32;31.15;;;18.38;;